Time;durP1;ratioP1;P1;durP2;ratioP2;P2;SDS_P1;SDS_P2;PMS_P1;PMS_P2;Temp;Humidity;BMP_temperature;BMP_pressure;BME280_temperature;BME280_humidity;BME280_pressure;Samples;Min_cycle;Max_cycle;Signal;HPM_P1;HPM_P2
2023/07/29 00:00:35;;;;;;;5.30;2.90;;;;;;;;;;9978894;28;20046;-71
2023/07/29 00:05:27;;;;;;;4.32;2.58;;;;;;;;;;9984246;28;20046;-71
2023/07/29 00:10:19;;;;;;;4.30;2.75;;;;;;;;;;9985177;28;20073;-70
2023/07/29 00:15:11;;;;;;;6.57;2.92;;;;;;;;;;9983672;28;20153;-70
2023/07/29 00:20:03;;;;;;;4.05;2.70;;;;;;;;;;9980996;28;20043;-70
2023/07/29 00:24:59;;;;;;;3.42;2.53;;;;;;;;;;9985013;28;20138;-71
2023/07/29 00:29:51;;;;;;;4.68;2.75;;;;;;;;;;9976687;28;20050;-71
2023/07/29 00:34:43;;;;;;;3.55;2.60;;;;;;;;;;9979749;28;20120;-72
2023/07/29 00:39:36;;;;;;;3.15;2.70;;;;;;;;;;9995431;28;20038;-72
2023/07/29 00:44:28;;;;;;;3.15;2.40;;;;;;;;;;9985998;28;20125;-70
2023/07/29 00:49:21;;;;;;;4.60;2.70;;;;;;;;;;9986187;28;20489;-71
2023/07/29 00:54:13;;;;;;;8.55;3.45;;;;;;;;;;9983492;28;20057;-69
2023/07/29 00:59:05;;;;;;;5.43;2.65;;;;;;;;;;9999355;28;20046;-72
2023/07/29 01:03:57;;;;;;;3.78;3.08;;;;;;;;;;9984020;28;20065;-73
2023/07/29 01:09:07;;;;;;;3.38;2.20;;;;;;;;;;9983608;28;20048;-71
2023/07/29 01:14:06;;;;;;;2.97;2.70;;;;;;;;;;9982577;28;20194;-73
2023/07/29 01:18:59;;;;;;;3.65;3.03;;;;;;;;;;9979757;28;20057;-73
2023/07/29 01:23:58;;;;;;;5.32;4.25;;;;;;;;;;9988100;28;20085;-73
2023/07/29 01:28:50;;;;;;;3.65;2.75;;;;;;;;;;9990592;28;20046;-73
2023/07/29 01:33:49;;;;;;;5.32;2.70;;;;;;;;;;9991557;28;20397;-73
2023/07/29 01:38:42;;;;;;;5.47;2.75;;;;;;;;;;9974658;28;20105;-72
2023/07/29 01:43:33;;;;;;;6.57;3.75;;;;;;;;;;9988064;28;20108;-73
2023/07/29 01:48:27;;;;;;;5.22;3.63;;;;;;;;;;9972924;28;20039;-73
2023/07/29 01:53:19;;;;;;;7.82;3.28;;;;;;;;;;9991162;28;20361;-73
2023/07/29 01:58:11;;;;;;;5.40;3.25;;;;;;;;;;9980358;28;20059;-72
2023/07/29 02:03:04;;;;;;;5.85;4.40;;;;;;;;;;9950573;28;20102;-72
2023/07/29 02:07:55;;;;;;;8.00;4.75;;;;;;;;;;9977285;28;20049;-72
2023/07/29 02:12:47;;;;;;;4.78;3.63;;;;;;;;;;9988565;28;20133;-73
2023/07/29 02:17:41;;;;;;;8.55;5.53;;;;;;;;;;9986849;28;20046;-73
2023/07/29 02:22:38;;;;;;;11.40;6.18;;;;;;;;;;9988927;28;20056;-72
2023/07/29 02:27:30;;;;;;;7.88;5.18;;;;;;;;;;9986582;28;20046;-73
2023/07/29 02:32:22;;;;;;;7.55;4.15;;;;;;;;;;9986948;28;20156;-73
2023/07/29 02:37:14;;;;;;;7.60;5.10;;;;;;;;;;9986137;28;20038;-73
2023/07/29 02:42:06;;;;;;;11.05;4.05;;;;;;;;;;9985993;28;20069;-73
2023/07/29 02:46:58;;;;;;;6.50;3.67;;;;;;;;;;9989429;28;20046;-73
2023/07/29 02:51:50;;;;;;;7.43;3.45;;;;;;;;;;9988380;28;20038;-73
2023/07/29 02:56:42;;;;;;;5.13;3.13;;;;;;;;;;9987233;28;20136;-73
2023/07/29 03:01:34;;;;;;;5.72;3.53;;;;;;;;;;9985443;28;20054;-72
2023/07/29 03:06:26;;;;;;;5.03;3.70;;;;;;;;;;9985599;28;20439;-73
2023/07/29 03:11:18;;;;;;;5.25;3.30;;;;;;;;;;9986845;28;20076;-73
2023/07/29 03:16:10;;;;;;;4.03;2.90;;;;;;;;;;9978341;28;20715;-73
2023/07/29 03:21:03;;;;;;;5.40;3.60;;;;;;;;;;9949870;28;20191;-72
2023/07/29 03:25:57;;;;;;;4.18;3.10;;;;;;;;;;9986965;28;20085;-73
2023/07/29 03:30:49;;;;;;;4.00;3.33;;;;;;;;;;9987066;28;20069;-72
2023/07/29 03:35:44;;;;;;;4.22;3.33;;;;;;;;;;9986968;28;20078;-73
2023/07/29 03:40:36;;;;;;;6.90;3.75;;;;;;;;;;9983732;28;20131;-73
2023/07/29 03:45:28;;;;;;;7.35;3.97;;;;;;;;;;9985943;28;20042;-72
2023/07/29 03:50:20;;;;;;;5.63;3.60;;;;;;;;;;9985520;28;20039;-73
2023/07/29 03:55:12;;;;;;;6.10;4.28;;;;;;;;;;9986091;28;20082;-73
2023/07/29 04:00:04;;;;;;;7.10;3.78;;;;;;;;;;9986031;28;20116;-73
2023/07/29 04:05:08;;;;;;;4.38;3.97;;;;;;;;;;9982798;28;20065;-73
2023/07/29 04:10:01;;;;;;;7.28;3.78;;;;;;;;;;9981889;28;20042;-72
2023/07/29 04:14:53;;;;;;;3.92;3.40;;;;;;;;;;9981378;28;20058;-73
2023/07/29 04:19:45;;;;;;;4.53;3.72;;;;;;;;;;9982526;28;20540;-73
2023/07/29 04:24:37;;;;;;;3.88;3.35;;;;;;;;;;9981650;28;20088;-74
2023/07/29 04:29:29;;;;;;;5.60;3.53;;;;;;;;;;9985096;28;20038;-73
2023/07/29 04:34:21;;;;;;;8.18;4.40;;;;;;;;;;9985382;28;20433;-73
2023/07/29 04:39:13;;;;;;;4.50;3.70;;;;;;;;;;9984193;28;20108;-73
2023/07/29 04:44:05;;;;;;;4.05;3.65;;;;;;;;;;9985296;28;20038;-72
2023/07/29 04:48:57;;;;;;;6.72;3.50;;;;;;;;;;9982883;28;20627;-73
2023/07/29 04:53:49;;;;;;;10.77;3.75;;;;;;;;;;9983346;28;20397;-73
2023/07/29 04:58:41;;;;;;;3.80;3.22;;;;;;;;;;9990206;28;20055;-73
2023/07/29 05:03:33;;;;;;;4.03;3.20;;;;;;;;;;9990899;28;20042;-72
2023/07/29 05:08:29;;;;;;;6.55;3.80;;;;;;;;;;9991183;28;20042;-72
2023/07/29 05:13:21;;;;;;;4.30;3.90;;;;;;;;;;9989853;28;20380;-71
2023/07/29 05:18:13;;;;;;;4.70;3.55;;;;;;;;;;9988684;28;20050;-72
2023/07/29 05:23:05;;;;;;;26.02;3.17;;;;;;;;;;9989849;28;20064;-72
2023/07/29 05:27:57;;;;;;;5.10;3.25;;;;;;;;;;9990108;28;20057;-72
2023/07/29 05:32:49;;;;;;;4.95;3.42;;;;;;;;;;9992218;28;20046;-73
2023/07/29 05:37:41;;;;;;;3.90;3.38;;;;;;;;;;9988212;28;20050;-73
2023/07/29 05:42:33;;;;;;;6.05;3.97;;;;;;;;;;9989661;28;20050;-72
2023/07/29 05:47:26;;;;;;;5.55;4.15;;;;;;;;;;9989183;28;20464;-72
2023/07/29 05:52:18;;;;;;;7.38;3.47;;;;;;;;;;9991138;28;20042;-72
2023/07/29 05:57:11;;;;;;;4.53;3.80;;;;;;;;;;9990028;28;20380;-73
2023/07/29 06:02:03;;;;;;;6.88;5.05;;;;;;;;;;9990634;28;20365;-73
2023/07/29 06:06:56;;;;;;;5.43;4.00;;;;;;;;;;9988214;28;20484;-72
2023/07/29 06:11:49;;;;;;;5.93;4.25;;;;;;;;;;9987302;28;20038;-72
2023/07/29 06:16:41;;;;;;;7.72;4.80;;;;;;;;;;9986225;28;20046;-73
2023/07/29 06:21:35;;;;;;;7.55;4.35;;;;;;;;;;9987078;28;20081;-72
2023/07/29 06:26:26;;;;;;;5.32;4.10;;;;;;;;;;9989631;28;20045;-73
2023/07/29 06:31:18;;;;;;;5.82;4.40;;;;;;;;;;9988398;28;20049;-72
2023/07/29 06:36:10;;;;;;;7.45;4.15;;;;;;;;;;9986174;28;20042;-73
2023/07/29 06:41:02;;;;;;;6.30;3.60;;;;;;;;;;9987709;28;20046;-72
2023/07/29 06:45:55;;;;;;;6.35;3.30;;;;;;;;;;9997150;28;20116;-72
2023/07/29 06:50:47;;;;;;;5.07;3.65;;;;;;;;;;10000715;28;20076;-72
2023/07/29 06:55:39;;;;;;;4.63;3.17;;;;;;;;;;9986355;28;20100;-72
2023/07/29 07:00:31;;;;;;;6.25;4.05;;;;;;;;;;9985873;28;20050;-72
2023/07/29 07:05:23;;;;;;;4.88;3.53;;;;;;;;;;9985976;28;20046;-72
2023/07/29 07:10:15;;;;;;;5.45;4.03;;;;;;;;;;9987526;28;20066;-74
2023/07/29 07:15:07;;;;;;;4.50;3.63;;;;;;;;;;9986452;28;20077;-72
2023/07/29 07:19:59;;;;;;;5.10;3.42;;;;;;;;;;9978731;28;20073;-73
2023/07/29 07:24:51;;;;;;;6.85;3.28;;;;;;;;;;9977643;28;20437;-73
2023/07/29 07:29:43;;;;;;;4.80;3.08;;;;;;;;;;9975629;28;20054;-73
2023/07/29 07:34:35;;;;;;;19.30;4.28;;;;;;;;;;9982795;28;20112;-74
2023/07/29 07:39:27;;;;;;;5.40;3.53;;;;;;;;;;9987793;28;20465;-74
2023/07/29 07:44:19;;;;;;;4.78;3.45;;;;;;;;;;9988525;28;20089;-73
2023/07/29 07:49:12;;;;;;;3.88;3.15;;;;;;;;;;9985996;28;20109;-73
2023/07/29 07:54:04;;;;;;;3.97;3.08;;;;;;;;;;9987197;28;20066;-72
2023/07/29 07:58:56;;;;;;;5.25;2.90;;;;;;;;;;9987282;28;20077;-73
2023/07/29 08:03:48;;;;;;;3.88;3.33;;;;;;;;;;9987457;28;20133;-73
2023/07/29 08:08:39;;;;;;;6.00;3.90;;;;;;;;;;9987211;28;20042;-73
2023/07/29 08:13:31;;;;;;;6.35;3.45;;;;;;;;;;9987520;28;20061;-74
2023/07/29 08:18:23;;;;;;;5.30;3.72;;;;;;;;;;9986738;28;20034;-73
2023/07/29 08:23:15;;;;;;;7.72;3.53;;;;;;;;;;9986122;28;20540;-74
2023/07/29 08:28:07;;;;;;;3.90;3.35;;;;;;;;;;9986994;28;20066;-73
2023/07/29 08:32:59;;;;;;;4.95;3.78;;;;;;;;;;9985707;28;20104;-74
2023/07/29 08:37:51;;;;;;;3.83;3.45;;;;;;;;;;9987286;28;20377;-72
2023/07/29 08:42:45;;;;;;;11.02;3.17;;;;;;;;;;9984938;28;20043;-74
2023/07/29 08:47:37;;;;;;;3.30;3.00;;;;;;;;;;9986031;28;20039;-75
2023/07/29 08:52:31;;;;;;;3.80;3.28;;;;;;;;;;9984974;28;20177;-74
2023/07/29 08:57:23;;;;;;;5.30;3.78;;;;;;;;;;9985644;28;20089;-74
2023/07/29 09:02:15;;;;;;;3.30;2.78;;;;;;;;;;9985719;28;20054;-74
2023/07/29 09:07:07;;;;;;;3.40;2.92;;;;;;;;;;9985690;28;20067;-71
2023/07/29 09:11:59;;;;;;;4.20;3.35;;;;;;;;;;9998202;28;20373;-74
2023/07/29 09:16:51;;;;;;;5.00;3.42;;;;;;;;;;9984959;28;20048;-74
2023/07/29 09:21:46;;;;;;;3.80;2.83;;;;;;;;;;9984299;28;20044;-74
2023/07/29 09:26:38;;;;;;;6.93;3.67;;;;;;;;;;9985465;28;20437;-72
2023/07/29 09:31:32;;;;;;;5.32;3.60;;;;;;;;;;9983470;28;20050;-73
2023/07/29 09:36:25;;;;;;;4.57;3.38;;;;;;;;;;9984253;28;20046;-77
2023/07/29 09:41:16;;;;;;;5.78;3.60;;;;;;;;;;9988495;28;20121;-75
2023/07/29 09:46:08;;;;;;;5.63;3.08;;;;;;;;;;9996351;28;20137;-75
2023/07/29 09:51:09;;;;;;;4.10;3.10;;;;;;;;;;10008126;28;20418;-75
2023/07/29 09:56:03;;;;;;;4.25;3.38;;;;;;;;;;10028822;28;20362;-74
2023/07/29 10:00:54;;;;;;;5.80;3.47;;;;;;;;;;10028455;28;20491;-72
2023/07/29 10:05:46;;;;;;;3.83;3.47;;;;;;;;;;10012480;28;20046;-74
2023/07/29 10:10:38;;;;;;;5.93;3.67;;;;;;;;;;10016141;28;20402;-71
2023/07/29 10:15:31;;;;;;;6.10;3.78;;;;;;;;;;10027207;28;20042;-72
2023/07/29 10:20:23;;;;;;;10.20;4.03;;;;;;;;;;10027148;28;20042;-68
2023/07/29 10:25:22;;;;;;;7.95;4.28;;;;;;;;;;10028442;28;20073;-64
2023/07/29 10:30:14;;;;;;;6.72;4.10;;;;;;;;;;10029892;28;20062;-74
2023/07/29 10:35:06;;;;;;;9.40;3.97;;;;;;;;;;10029976;28;20364;-70
2023/07/29 10:39:58;;;;;;;6.10;3.50;;;;;;;;;;10029932;28;20068;-70
2023/07/29 10:44:52;;;;;;;5.95;2.78;;;;;;;;;;10013968;28;20042;-72
2023/07/29 10:49:45;;;;;;;6.15;3.42;;;;;;;;;;9985733;28;20046;-72
2023/07/29 10:54:45;;;;;;;6.53;3.35;;;;;;;;;;9976746;28;20069;-71
2023/07/29 10:59:37;;;;;;;4.28;3.22;;;;;;;;;;9961900;28;20129;-70
2023/07/29 11:04:33;;;;;;;7.72;3.30;;;;;;;;;;9959736;28;20521;-69
2023/07/29 11:09:53;;;;;;;3.95;3.55;;;;;;;;;;9985869;28;20042;-70
2023/07/29 11:14:48;;;;;;;7.47;3.45;;;;;;;;;;9988160;28;20456;-69
2023/07/29 11:19:40;;;;;;;12.15;3.67;;;;;;;;;;9981143;28;20057;-72
2023/07/29 11:24:31;;;;;;;8.13;3.00;;;;;;;;;;9971581;28;20066;-77
2023/07/29 11:29:24;;;;;;;8.88;3.63;;;;;;;;;;9979642;28;20125;-73
2023/07/29 11:34:20;;;;;;;4.72;3.47;;;;;;;;;;9972903;28;20092;-72
2023/07/29 11:39:12;;;;;;;7.43;3.22;;;;;;;;;;9978820;28;20517;-70
2023/07/29 11:44:03;;;;;;;9.25;3.72;;;;;;;;;;9968839;28;20095;-71
2023/07/29 11:48:55;;;;;;;4.13;3.15;;;;;;;;;;9983341;28;20108;-72
2023/07/29 11:53:47;;;;;;;6.75;3.25;;;;;;;;;;9985329;28;20069;-72
2023/07/29 11:58:39;;;;;;;5.75;4.00;;;;;;;;;;10014732;28;20085;-70
2023/07/29 12:03:31;;;;;;;4.97;3.72;;;;;;;;;;10026771;28;20124;-72
2023/07/29 12:08:23;;;;;;;6.88;3.22;;;;;;;;;;10014699;28;20073;-72
2023/07/29 12:13:14;;;;;;;7.75;2.72;;;;;;;;;;10005653;28;20081;-72
2023/07/29 12:18:06;;;;;;;6.20;2.63;;;;;;;;;;10014406;28;20433;-71
2023/07/29 12:23:02;;;;;;;4.03;3.28;;;;;;;;;;10015000;28;20054;-72
2023/07/29 12:27:54;;;;;;;5.38;3.30;;;;;;;;;;10015204;28;20057;-72
2023/07/29 12:32:47;;;;;;;5.10;2.92;;;;;;;;;;9970303;28;20050;-72
2023/07/29 12:37:42;;;;;;;6.70;3.85;;;;;;;;;;9968317;28;20484;-72
2023/07/29 12:42:33;;;;;;;3.90;3.00;;;;;;;;;;9966400;28;20042;-70
2023/07/29 12:47:25;;;;;;;3.38;3.03;;;;;;;;;;9966899;28;20042;-70
2023/07/29 12:52:17;;;;;;;3.65;3.03;;;;;;;;;;9959392;28;20100;-71
2023/07/29 12:57:09;;;;;;;6.88;2.80;;;;;;;;;;9971748;28;20082;-73
2023/07/29 13:02:01;;;;;;;8.15;3.25;;;;;;;;;;9967375;28;20101;-72
2023/07/29 13:06:53;;;;;;;6.00;2.90;;;;;;;;;;9979500;28;20159;-72
2023/07/29 13:11:44;;;;;;;6.65;3.00;;;;;;;;;;9982593;28;20042;-72
2023/07/29 13:16:36;;;;;;;3.72;2.67;;;;;;;;;;9968197;28;20535;-72
2023/07/29 13:21:29;;;;;;;2.97;2.42;;;;;;;;;;10022916;28;20092;-72
2023/07/29 13:26:21;;;;;;;6.57;2.90;;;;;;;;;;10029161;28;20045;-72
2023/07/29 13:31:13;;;;;;;6.88;2.88;;;;;;;;;;10023090;28;20088;-73
2023/07/29 13:36:05;;;;;;;5.47;2.90;;;;;;;;;;10018610;28;20049;-73
2023/07/29 13:40:57;;;;;;;7.03;2.55;;;;;;;;;;10013136;28;20165;-71
2023/07/29 13:45:50;;;;;;;3.42;2.75;;;;;;;;;;10007946;28;20053;-79
2023/07/29 13:50:43;;;;;;;5.72;2.92;;;;;;;;;;10011197;28;20038;-75
2023/07/29 13:55:35;;;;;;;2.75;2.45;;;;;;;;;;10013836;28;20046;-75
2023/07/29 14:00:27;;;;;;;3.10;2.30;;;;;;;;;;10016238;28;20167;-76
2023/07/29 14:05:19;;;;;;;5.75;2.20;;;;;;;;;;10025130;28;20068;-76
2023/07/29 14:10:11;;;;;;;3.63;2.42;;;;;;;;;;10013743;28;20160;-76
2023/07/29 14:15:04;;;;;;;4.40;2.25;;;;;;;;;;10013143;28;20038;-75
2023/07/29 14:19:56;;;;;;;2.65;1.92;;;;;;;;;;10017392;28;20093;-75
2023/07/29 14:24:47;;;;;;;3.95;2.65;;;;;;;;;;10029158;28;20072;-76
2023/07/29 14:29:39;;;;;;;5.82;2.42;;;;;;;;;;9975960;28;20056;-75
2023/07/29 14:34:31;;;;;;;6.25;3.90;;;;;;;;;;9991303;28;20048;-75
2023/07/29 14:39:23;;;;;;;4.47;2.13;;;;;;;;;;10022873;28;20041;-74
2023/07/29 14:44:15;;;;;;;3.58;2.00;;;;;;;;;;10025038;28;20049;-75
2023/07/29 14:49:06;;;;;;;3.15;2.05;;;;;;;;;;9968967;28;20503;-75
2023/07/29 14:53:58;;;;;;;3.78;2.05;;;;;;;;;;10018763;28;20468;-76
2023/07/29 14:58:50;;;;;;;3.40;2.10;;;;;;;;;;9987186;28;20046;-75
2023/07/29 15:03:42;;;;;;;3.28;2.03;;;;;;;;;;9989495;28;20050;-73
2023/07/29 15:08:37;;;;;;;4.07;2.53;;;;;;;;;;9986988;28;20054;-76
2023/07/29 15:13:29;;;;;;;6.95;2.80;;;;;;;;;;9988897;28;20121;-76
2023/07/29 15:18:22;;;;;;;3.72;2.53;;;;;;;;;;9989001;28;20492;-76
2023/07/29 15:23:14;;;;;;;2.85;1.67;;;;;;;;;;9976553;28;20101;-72
2023/07/29 15:28:06;;;;;;;5.05;1.92;;;;;;;;;;9964682;28;20058;-73
2023/07/29 15:32:57;;;;;;;7.97;2.40;;;;;;;;;;9964773;28;20887;-73
2023/07/29 15:37:49;;;;;;;4.65;1.80;;;;;;;;;;9967952;28;20380;-72
2023/07/29 15:42:41;;;;;;;3.15;1.85;;;;;;;;;;9976817;28;20150;-73
2023/07/29 15:47:33;;;;;;;3.17;1.90;;;;;;;;;;9954594;28;20081;-73
2023/07/29 15:52:26;;;;;;;4.30;1.90;;;;;;;;;;9982553;28;20113;-73
2023/07/29 15:57:18;;;;;;;5.85;1.90;;;;;;;;;;9979790;28;20104;-72
2023/07/29 16:02:10;;;;;;;3.28;2.15;;;;;;;;;;9954902;28;20042;-72
2023/07/29 16:07:02;;;;;;;3.85;2.08;;;;;;;;;;9970271;28;20042;-73
2023/07/29 16:11:54;;;;;;;4.38;2.30;;;;;;;;;;9977593;28;20441;-73
2023/07/29 16:16:46;;;;;;;3.42;2.08;;;;;;;;;;9970912;28;20050;-72
2023/07/29 16:21:37;;;;;;;4.13;1.80;;;;;;;;;;9990008;28;20038;-72
2023/07/29 16:26:29;;;;;;;2.78;1.70;;;;;;;;;;10023672;28;20110;-73
2023/07/29 16:31:21;;;;;;;4.43;2.50;;;;;;;;;;10023667;28;20089;-73
2023/07/29 16:36:13;;;;;;;6.78;2.67;;;;;;;;;;10024144;28;20053;-73
2023/07/29 16:41:05;;;;;;;3.42;2.13;;;;;;;;;;10025640;28;20038;-73
2023/07/29 16:46:17;;;;;;;3.03;2.05;;;;;;;;;;10022269;28;20049;-73
2023/07/29 16:51:10;;;;;;;7.00;3.33;;;;;;;;;;10024383;28;20380;-72
2023/07/29 16:56:02;;;;;;;4.00;2.35;;;;;;;;;;9991425;28;20133;-72
2023/07/29 17:00:54;;;;;;;2.97;2.33;;;;;;;;;;9994540;28;20042;-72
2023/07/29 17:05:46;;;;;;;3.65;2.70;;;;;;;;;;9987498;28;20101;-73
2023/07/29 17:10:37;;;;;;;3.10;2.38;;;;;;;;;;9990526;28;20046;-71
2023/07/29 17:15:29;;;;;;;3.45;2.40;;;;;;;;;;9993803;28;20042;-71
2023/07/29 17:20:21;;;;;;;4.05;2.75;;;;;;;;;;9983206;28;20057;-71
2023/07/29 17:25:13;;;;;;;4.57;2.45;;;;;;;;;;9989269;28;20094;-69
2023/07/29 17:30:05;;;;;;;5.00;2.63;;;;;;;;;;9987887;28;20532;-70
2023/07/29 17:34:57;;;;;;;5.13;2.33;;;;;;;;;;9981585;28;20101;-73
2023/07/29 17:39:49;;;;;;;5.03;2.63;;;;;;;;;;9993126;28;20410;-73
2023/07/29 17:44:41;;;;;;;3.50;2.60;;;;;;;;;;9992217;28;20381;-71
2023/07/29 17:49:33;;;;;;;3.58;2.58;;;;;;;;;;9991955;28;20101;-72
2023/07/29 17:54:24;;;;;;;5.65;3.13;;;;;;;;;;9985268;28;20039;-75
2023/07/29 17:59:16;;;;;;;6.95;2.88;;;;;;;;;;9995203;28;20046;-75
2023/07/29 18:04:08;;;;;;;4.60;3.15;;;;;;;;;;9993354;28;20491;-75
2023/07/29 18:09:00;;;;;;;4.63;2.90;;;;;;;;;;10000109;28;20047;-76
2023/07/29 18:13:52;;;;;;;5.22;3.50;;;;;;;;;;10006143;28;20042;-75
2023/07/29 18:18:43;;;;;;;5.15;3.30;;;;;;;;;;10011861;28;20096;-75
2023/07/29 18:23:35;;;;;;;6.15;3.78;;;;;;;;;;10005248;28;20046;-75
2023/07/29 18:28:28;;;;;;;6.53;3.05;;;;;;;;;;9998847;28;20043;-75
2023/07/29 18:33:21;;;;;;;7.50;3.17;;;;;;;;;;9983576;28;20363;-75
2023/07/29 18:38:13;;;;;;;7.22;3.70;;;;;;;;;;9973067;28;20035;-75
2023/07/29 18:43:05;;;;;;;5.18;4.30;;;;;;;;;;9964492;28;20112;-75
2023/07/29 18:47:56;;;;;;;9.65;3.40;;;;;;;;;;10006482;28;20047;-75
2023/07/29 18:52:48;;;;;;;4.32;2.67;;;;;;;;;;10000385;28;20101;-75
2023/07/29 18:57:40;;;;;;;3.40;3.08;;;;;;;;;;10027533;28;20552;-75
2023/07/29 19:02:32;;;;;;;5.35;3.08;;;;;;;;;;10018264;28;20052;-75
2023/07/29 19:07:24;;;;;;;6.13;2.70;;;;;;;;;;10002423;28;20085;-75
2023/07/29 19:12:16;;;;;;;6.15;2.63;;;;;;;;;;10022738;28;20045;-75
2023/07/29 19:17:08;;;;;;;4.68;3.75;;;;;;;;;;10016969;28;20041;-75
2023/07/29 19:22:00;;;;;;;4.68;3.38;;;;;;;;;;10020897;28;20452;-75
2023/07/29 19:26:52;;;;;;;6.05;2.80;;;;;;;;;;9976112;28;20261;-75
2023/07/29 19:31:44;;;;;;;8.60;2.55;;;;;;;;;;9978121;28;20046;-74
2023/07/29 19:36:36;;;;;;;3.33;2.78;;;;;;;;;;9999737;28;20039;-75
2023/07/29 19:41:28;;;;;;;7.20;3.53;;;;;;;;;;10010335;28;20050;-75
2023/07/29 19:46:20;;;;;;;5.55;3.05;;;;;;;;;;10025815;28;20392;-75
2023/07/29 19:51:29;;;;;;;6.97;2.90;;;;;;;;;;10028662;28;20046;-74
2023/07/29 19:56:23;;;;;;;5.32;2.97;;;;;;;;;;10026852;28;20054;-75
2023/07/29 20:01:14;;;;;;;5.57;4.07;;;;;;;;;;10023111;28;20080;-75
2023/07/29 20:06:06;;;;;;;4.97;3.13;;;;;;;;;;10021174;28;20346;-74
2023/07/29 20:10:59;;;;;;;9.85;3.10;;;;;;;;;;10002071;28;20109;-75
2023/07/29 20:15:51;;;;;;;6.82;2.83;;;;;;;;;;9980378;28;20043;-75
2023/07/29 20:20:43;;;;;;;4.50;3.30;;;;;;;;;;9986032;28;20548;-74
2023/07/29 20:25:35;;;;;;;6.38;3.50;;;;;;;;;;9984597;28;20054;-74
2023/07/29 20:30:30;;;;;;;7.05;2.95;;;;;;;;;;9984822;28;20046;-75
2023/07/29 20:35:22;;;;;;;7.00;3.17;;;;;;;;;;9985836;28;20089;-74
2023/07/29 20:40:15;;;;;;;6.18;3.20;;;;;;;;;;9986899;28;20038;-75
2023/07/29 20:45:07;;;;;;;7.68;3.67;;;;;;;;;;10008562;28;20054;-75
2023/07/29 20:50:00;;;;;;;5.88;4.13;;;;;;;;;;10016273;28;20047;-74
2023/07/29 20:54:51;;;;;;;6.18;3.17;;;;;;;;;;9985090;28;20046;-74
2023/07/29 20:59:43;;;;;;;5.38;3.35;;;;;;;;;;9986473;28;20046;-75
2023/07/29 21:04:35;;;;;;;6.68;3.72;;;;;;;;;;9983614;28;20046;-74
2023/07/29 21:09:27;;;;;;;5.22;4.03;;;;;;;;;;9985706;28;20046;-75
2023/07/29 21:14:19;;;;;;;7.28;3.20;;;;;;;;;;9985769;28;20480;-75
2023/07/29 21:19:11;;;;;;;7.07;3.67;;;;;;;;;;9985186;28;20050;-75
2023/07/29 21:24:02;;;;;;;5.70;3.50;;;;;;;;;;9983671;28;20113;-75
2023/07/29 21:28:54;;;;;;;5.50;3.75;;;;;;;;;;9983087;28;20125;-75
2023/07/29 21:33:46;;;;;;;7.57;3.38;;;;;;;;;;9985733;28;20190;-75
2023/07/29 21:38:38;;;;;;;4.10;3.22;;;;;;;;;;9988361;28;20046;-75
2023/07/29 21:43:30;;;;;;;5.13;3.33;;;;;;;;;;9990330;28;20072;-75
2023/07/29 21:48:21;;;;;;;4.72;3.20;;;;;;;;;;9990609;28;20125;-75
2023/07/29 21:53:13;;;;;;;7.70;4.53;;;;;;;;;;9991054;28;20049;-74
2023/07/29 21:58:05;;;;;;;5.22;3.88;;;;;;;;;;9990348;28;20100;-74
2023/07/29 22:02:57;;;;;;;9.88;4.15;;;;;;;;;;9994355;28;20354;-75
2023/07/29 22:07:49;;;;;;;5.05;3.40;;;;;;;;;;10023314;28;20510;-75
2023/07/29 22:12:43;;;;;;;6.95;3.50;;;;;;;;;;9999548;28;20039;-75
2023/07/29 22:17:35;;;;;;;8.95;3.97;;;;;;;;;;9990291;28;20043;-74
2023/07/29 22:22:26;;;;;;;9.45;4.00;;;;;;;;;;9989994;28;20042;-75
2023/07/29 22:27:18;;;;;;;5.88;3.40;;;;;;;;;;9990021;28;20061;-75
2023/07/29 22:32:10;;;;;;;4.25;3.53;;;;;;;;;;9990084;28;20093;-75
2023/07/29 22:37:02;;;;;;;4.30;3.90;;;;;;;;;;9985061;28;20171;-74
2023/07/29 22:41:56;;;;;;;9.48;4.47;;;;;;;;;;9973900;28;20050;-74
2023/07/29 22:46:48;;;;;;;4.68;4.03;;;;;;;;;;9986268;28;20117;-75
2023/07/29 22:51:40;;;;;;;5.63;4.25;;;;;;;;;;9966032;28;20046;-71
2023/07/29 22:56:32;;;;;;;5.30;4.05;;;;;;;;;;9970664;28;20050;-74
2023/07/29 23:01:24;;;;;;;5.90;4.57;;;;;;;;;;9959433;28;20093;-74
2023/07/29 23:06:16;;;;;;;5.18;4.20;;;;;;;;;;9974322;28;20054;-74
2023/07/29 23:11:08;;;;;;;6.68;4.35;;;;;;;;;;9964410;28;20042;-75
2023/07/29 23:16:00;;;;;;;8.13;4.30;;;;;;;;;;9979758;28;20041;-73
2023/07/29 23:20:53;;;;;;;5.43;4.05;;;;;;;;;;9961919;28;20361;-75
2023/07/29 23:25:44;;;;;;;6.45;4.13;;;;;;;;;;9963696;28;20074;-74
2023/07/29 23:30:37;;;;;;;5.13;3.70;;;;;;;;;;9971285;28;20081;-74
2023/07/29 23:42:12;;;;;;;5.22;3.85;;;;;;;;;;9855828;29;20044;-72
2023/07/29 23:47:04;;;;;;;4.82;3.55;;;;;;;;;;9870731;29;20052;-73
2023/07/29 23:51:56;;;;;;;5.93;3.55;;;;;;;;;;9866093;29;20079;-72
2023/07/29 23:56:48;;;;;;;5.68;4.28;;;;;;;;;;9860919;29;20139;-72
